sensor_id;sensor_type;location;lat;lon;timestamp;P1;durP1;ratioP1;P2;durP2;ratioP2
75446;SDS011;64024;55.820;37.574;2023-03-01T00:01:33;3.25;;;2.42;;
75446;SDS011;64024;55.820;37.574;2023-03-01T00:03:59;3.20;;;2.30;;
75446;SDS011;64024;55.820;37.574;2023-03-01T00:06:25;3.35;;;2.47;;
75446;SDS011;64024;55.820;37.574;2023-03-01T00:08:52;2.85;;;2.15;;
75446;SDS011;64024;55.820;37.574;2023-03-01T00:11:19;2.63;;;2.17;;
75446;SDS011;64024;55.820;37.574;2023-03-01T00:13:47;2.50;;;1.60;;
75446;SDS011;64024;55.820;37.574;2023-03-01T00:18:42;1.67;;;1.50;;
75446;SDS011;64024;55.820;37.574;2023-03-01T00:21:08;2.38;;;1.83;;
75446;SDS011;64024;55.820;37.574;2023-03-01T00:23:34;2.08;;;1.52;;
75446;SDS011;64024;55.820;37.574;2023-03-01T00:26:00;2.00;;;1.40;;
75446;SDS011;64024;55.820;37.574;2023-03-01T00:28:26;1.13;;;0.80;;
75446;SDS011;64024;55.820;37.574;2023-03-01T00:30:51;1.17;;;0.88;;
75446;SDS011;64024;55.820;37.574;2023-03-01T00:33:17;2.22;;;1.25;;
75446;SDS011;64024;55.820;37.574;2023-03-01T00:35:43;1.88;;;1.20;;
75446;SDS011;64024;55.820;37.574;2023-03-01T00:38:09;1.52;;;1.10;;
75446;SDS011;64024;55.820;37.574;2023-03-01T00:40:35;2.00;;;0.98;;
75446;SDS011;64024;55.820;37.574;2023-03-01T00:43:02;1.50;;;1.13;;
75446;SDS011;64024;55.820;37.574;2023-03-01T00:45:28;1.92;;;1.20;;
75446;SDS011;64024;55.820;37.574;2023-03-01T00:47:56;1.73;;;0.90;;
75446;SDS011;64024;55.820;37.574;2023-03-01T00:50:21;1.92;;;1.20;;
75446;SDS011;64024;55.820;37.574;2023-03-01T00:52:51;1.67;;;1.08;;
75446;SDS011;64024;55.820;37.574;2023-03-01T00:55:18;1.70;;;0.77;;
75446;SDS011;64024;55.820;37.574;2023-03-01T00:57:43;1.98;;;0.85;;
75446;SDS011;64024;55.820;37.574;2023-03-01T01:00:09;1.23;;;0.68;;
75446;SDS011;64024;55.820;37.574;2023-03-01T01:02:36;3.15;;;1.00;;
75446;SDS011;64024;55.820;37.574;2023-03-01T01:05:02;1.98;;;0.90;;
75446;SDS011;64024;55.820;37.574;2023-03-01T01:07:28;1.23;;;0.82;;
75446;SDS011;64024;55.820;37.574;2023-03-01T01:09:53;2.47;;;0.90;;
75446;SDS011;64024;55.820;37.574;2023-03-01T01:12:19;1.95;;;1.20;;
75446;SDS011;64024;55.820;37.574;2023-03-01T01:14:44;2.72;;;1.50;;
75446;SDS011;64024;55.820;37.574;2023-03-01T01:17:10;2.30;;;1.65;;
75446;SDS011;64024;55.820;37.574;2023-03-01T01:19:35;1.90;;;1.30;;
75446;SDS011;64024;55.820;37.574;2023-03-01T01:22:01;2.17;;;1.50;;
75446;SDS011;64024;55.820;37.574;2023-03-01T01:24:27;2.10;;;1.50;;
75446;SDS011;64024;55.820;37.574;2023-03-01T01:26:52;1.67;;;1.33;;
75446;SDS011;64024;55.820;37.574;2023-03-01T01:29:18;2.78;;;1.60;;
75446;SDS011;64024;55.820;37.574;2023-03-01T01:31:43;2.75;;;1.75;;
75446;SDS011;64024;55.820;37.574;2023-03-01T01:34:12;1.92;;;1.35;;
75446;SDS011;64024;55.820;37.574;2023-03-01T01:36:42;2.28;;;1.65;;
75446;SDS011;64024;55.820;37.574;2023-03-01T01:39:08;2.00;;;1.48;;
75446;SDS011;64024;55.820;37.574;2023-03-01T01:41:38;2.30;;;1.40;;
75446;SDS011;64024;55.820;37.574;2023-03-01T01:44:24;1.58;;;1.25;;
75446;SDS011;64024;55.820;37.574;2023-03-01T01:46:58;2.90;;;1.38;;
75446;SDS011;64024;55.820;37.574;2023-03-01T01:49:35;2.13;;;1.30;;
75446;SDS011;64024;55.820;37.574;2023-03-01T01:52:14;1.60;;;1.02;;
75446;SDS011;64024;55.820;37.574;2023-03-01T01:57:34;2.38;;;1.02;;
75446;SDS011;64024;55.820;37.574;2023-03-01T02:00:04;2.05;;;1.38;;
75446;SDS011;64024;55.820;37.574;2023-03-01T02:02:32;1.40;;;0.82;;
75446;SDS011;64024;55.820;37.574;2023-03-01T02:05:03;2.20;;;1.20;;
75446;SDS011;64024;55.820;37.574;2023-03-01T02:07:42;1.33;;;0.80;;
75446;SDS011;64024;55.820;37.574;2023-03-01T02:10:09;1.52;;;0.73;;
75446;SDS011;64024;55.820;37.574;2023-03-01T02:12:35;1.90;;;1.35;;
75446;SDS011;64024;55.820;37.574;2023-03-01T02:15:02;1.73;;;1.02;;
75446;SDS011;64024;55.820;37.574;2023-03-01T02:17:27;2.22;;;1.20;;
75446;SDS011;64024;55.820;37.574;2023-03-01T02:23:07;1.05;;;0.80;;
75446;SDS011;64024;55.820;37.574;2023-03-01T02:28:17;0.90;;;0.60;;
75446;SDS011;64024;55.820;37.574;2023-03-01T02:31:09;1.65;;;0.90;;
75446;SDS011;64024;55.820;37.574;2023-03-01T02:33:54;1.25;;;0.70;;
75446;SDS011;64024;55.820;37.574;2023-03-01T02:37:06;1.30;;;0.77;;
75446;SDS011;64024;55.820;37.574;2023-03-01T02:39:12;1.05;;;0.63;;
75446;SDS011;64024;55.820;37.574;2023-03-01T02:41:45;1.13;;;0.73;;
75446;SDS011;64024;55.820;37.574;2023-03-01T02:44:13;2.00;;;0.80;;
75446;SDS011;64024;55.820;37.574;2023-03-01T02:46:57;2.03;;;0.88;;
75446;SDS011;64024;55.820;37.574;2023-03-01T02:49:29;0.98;;;0.65;;
75446;SDS011;64024;55.820;37.574;2023-03-01T02:54:54;1.35;;;0.50;;
75446;SDS011;64024;55.820;37.574;2023-03-01T02:57:31;1.60;;;0.57;;
75446;SDS011;64024;55.820;37.574;2023-03-01T03:00:00;0.85;;;0.50;;
75446;SDS011;64024;55.820;37.574;2023-03-01T03:02:33;1.05;;;0.70;;
75446;SDS011;64024;55.820;37.574;2023-03-01T03:05:10;1.20;;;0.57;;
75446;SDS011;64024;55.820;37.574;2023-03-01T03:07:39;0.98;;;0.70;;
75446;SDS011;64024;55.820;37.574;2023-03-01T03:10:08;1.50;;;1.08;;
75446;SDS011;64024;55.820;37.574;2023-03-01T03:12:36;1.75;;;1.13;;
75446;SDS011;64024;55.820;37.574;2023-03-01T03:15:03;2.80;;;1.20;;
75446;SDS011;64024;55.820;37.574;2023-03-01T03:17:34;1.83;;;1.30;;
75446;SDS011;64024;55.820;37.574;2023-03-01T03:20:04;2.47;;;1.48;;
75446;SDS011;64024;55.820;37.574;2023-03-01T03:22:35;2.30;;;1.42;;
75446;SDS011;64024;55.820;37.574;2023-03-01T03:25:01;2.03;;;1.50;;
75446;SDS011;64024;55.820;37.574;2023-03-01T03:27:27;2.60;;;1.75;;
75446;SDS011;64024;55.820;37.574;2023-03-01T03:29:53;3.05;;;1.75;;
75446;SDS011;64024;55.820;37.574;2023-03-01T03:32:18;2.20;;;1.38;;
75446;SDS011;64024;55.820;37.574;2023-03-01T03:34:44;3.85;;;1.90;;
75446;SDS011;64024;55.820;37.574;2023-03-01T03:37:09;2.92;;;1.83;;
75446;SDS011;64024;55.820;37.574;2023-03-01T03:39:55;2.47;;;1.88;;
75446;SDS011;64024;55.820;37.574;2023-03-01T03:42:21;3.35;;;2.00;;
75446;SDS011;64024;55.820;37.574;2023-03-01T03:44:47;2.38;;;2.08;;
75446;SDS011;64024;55.820;37.574;2023-03-01T03:47:13;2.40;;;2.00;;
75446;SDS011;64024;55.820;37.574;2023-03-01T03:49:38;2.08;;;1.73;;
75446;SDS011;64024;55.820;37.574;2023-03-01T03:52:04;3.00;;;2.22;;
75446;SDS011;64024;55.820;37.574;2023-03-01T03:54:38;2.95;;;2.33;;
75446;SDS011;64024;55.820;37.574;2023-03-01T03:57:05;3.38;;;2.35;;
75446;SDS011;64024;55.820;37.574;2023-03-01T03:59:31;2.90;;;2.33;;
75446;SDS011;64024;55.820;37.574;2023-03-01T04:01:56;3.15;;;2.38;;
75446;SDS011;64024;55.820;37.574;2023-03-01T04:04:22;2.90;;;2.17;;
75446;SDS011;64024;55.820;37.574;2023-03-01T04:06:47;3.00;;;2.22;;
75446;SDS011;64024;55.820;37.574;2023-03-01T04:09:13;2.67;;;2.13;;
75446;SDS011;64024;55.820;37.574;2023-03-01T04:11:39;2.72;;;2.25;;
75446;SDS011;64024;55.820;37.574;2023-03-01T04:14:04;3.22;;;2.28;;
75446;SDS011;64024;55.820;37.574;2023-03-01T04:16:30;2.70;;;2.22;;
75446;SDS011;64024;55.820;37.574;2023-03-01T04:18:55;3.65;;;2.30;;
75446;SDS011;64024;55.820;37.574;2023-03-01T04:21:21;3.35;;;2.50;;
75446;SDS011;64024;55.820;37.574;2023-03-01T04:23:47;4.00;;;2.45;;
75446;SDS011;64024;55.820;37.574;2023-03-01T04:26:12;3.60;;;1.65;;
75446;SDS011;64024;55.820;37.574;2023-03-01T04:28:39;3.53;;;2.20;;
75446;SDS011;64024;55.820;37.574;2023-03-01T04:31:11;3.17;;;2.78;;
75446;SDS011;64024;55.820;37.574;2023-03-01T04:36:21;3.30;;;2.30;;
75446;SDS011;64024;55.820;37.574;2023-03-01T04:38:49;3.50;;;2.58;;
75446;SDS011;64024;55.820;37.574;2023-03-01T04:41:16;3.42;;;2.20;;
75446;SDS011;64024;55.820;37.574;2023-03-01T04:43:43;2.58;;;2.33;;
75446;SDS011;64024;55.820;37.574;2023-03-01T04:46:11;2.90;;;2.20;;
75446;SDS011;64024;55.820;37.574;2023-03-01T04:48:39;3.17;;;2.88;;
75446;SDS011;64024;55.820;37.574;2023-03-01T04:53:32;2.63;;;1.83;;
75446;SDS011;64024;55.820;37.574;2023-03-01T04:55:58;3.20;;;2.33;;
75446;SDS011;64024;55.820;37.574;2023-03-01T04:58:27;3.00;;;2.30;;
75446;SDS011;64024;55.820;37.574;2023-03-01T05:00:54;3.80;;;2.58;;
75446;SDS011;64024;55.820;37.574;2023-03-01T05:03:19;3.92;;;2.72;;
75446;SDS011;64024;55.820;37.574;2023-03-01T05:05:46;3.17;;;2.70;;
75446;SDS011;64024;55.820;37.574;2023-03-01T05:08:13;2.67;;;2.00;;
75446;SDS011;64024;55.820;37.574;2023-03-01T05:10:43;2.72;;;2.45;;
75446;SDS011;64024;55.820;37.574;2023-03-01T05:13:16;3.97;;;2.60;;
75446;SDS011;64024;55.820;37.574;2023-03-01T05:15:53;2.97;;;2.08;;
75446;SDS011;64024;55.820;37.574;2023-03-01T05:18:20;2.75;;;2.40;;
75446;SDS011;64024;55.820;37.574;2023-03-01T05:20:46;2.70;;;2.28;;
75446;SDS011;64024;55.820;37.574;2023-03-01T05:23:12;2.85;;;2.15;;
75446;SDS011;64024;55.820;37.574;2023-03-01T05:25:38;2.97;;;2.50;;
75446;SDS011;64024;55.820;37.574;2023-03-01T05:28:05;2.90;;;2.13;;
75446;SDS011;64024;55.820;37.574;2023-03-01T05:30:34;3.08;;;2.33;;
75446;SDS011;64024;55.820;37.574;2023-03-01T05:33:00;2.90;;;2.50;;
75446;SDS011;64024;55.820;37.574;2023-03-01T05:35:26;3.05;;;2.25;;
75446;SDS011;64024;55.820;37.574;2023-03-01T05:37:51;3.03;;;2.38;;
75446;SDS011;64024;55.820;37.574;2023-03-01T05:40:21;3.03;;;2.50;;
75446;SDS011;64024;55.820;37.574;2023-03-01T05:42:50;3.15;;;2.67;;
75446;SDS011;64024;55.820;37.574;2023-03-01T05:45:19;2.83;;;1.98;;
75446;SDS011;64024;55.820;37.574;2023-03-01T05:47:46;3.13;;;2.40;;
75446;SDS011;64024;55.820;37.574;2023-03-01T05:50:14;3.00;;;2.67;;
75446;SDS011;64024;55.820;37.574;2023-03-01T05:52:48;4.18;;;2.33;;
75446;SDS011;64024;55.820;37.574;2023-03-01T05:55:16;5.35;;;3.13;;
75446;SDS011;64024;55.820;37.574;2023-03-01T05:57:43;2.67;;;2.42;;
75446;SDS011;64024;55.820;37.574;2023-03-01T06:00:09;3.30;;;2.50;;
75446;SDS011;64024;55.820;37.574;2023-03-01T06:02:36;3.15;;;2.47;;
75446;SDS011;64024;55.820;37.574;2023-03-01T06:05:03;3.15;;;2.33;;
75446;SDS011;64024;55.820;37.574;2023-03-01T06:09:56;2.22;;;1.77;;
75446;SDS011;64024;55.820;37.574;2023-03-01T06:12:21;4.13;;;2.83;;
75446;SDS011;64024;55.820;37.574;2023-03-01T06:14:47;2.88;;;2.45;;
75446;SDS011;64024;55.820;37.574;2023-03-01T06:17:13;3.00;;;2.63;;
75446;SDS011;64024;55.820;37.574;2023-03-01T06:19:38;2.92;;;2.65;;
75446;SDS011;64024;55.820;37.574;2023-03-01T06:22:04;2.95;;;2.40;;
75446;SDS011;64024;55.820;37.574;2023-03-01T06:24:30;3.03;;;2.42;;
75446;SDS011;64024;55.820;37.574;2023-03-01T06:26:56;3.70;;;2.72;;
75446;SDS011;64024;55.820;37.574;2023-03-01T06:29:21;2.55;;;2.13;;
75446;SDS011;64024;55.820;37.574;2023-03-01T06:31:47;3.47;;;2.72;;
75446;SDS011;64024;55.820;37.574;2023-03-01T06:34:13;2.20;;;1.92;;
75446;SDS011;64024;55.820;37.574;2023-03-01T06:36:39;2.55;;;2.33;;
75446;SDS011;64024;55.820;37.574;2023-03-01T06:39:05;3.00;;;2.30;;
75446;SDS011;64024;55.820;37.574;2023-03-01T06:41:31;2.50;;;1.77;;
75446;SDS011;64024;55.820;37.574;2023-03-01T06:43:58;3.33;;;2.05;;
75446;SDS011;64024;55.820;37.574;2023-03-01T06:46:24;2.22;;;1.45;;
75446;SDS011;64024;55.820;37.574;2023-03-01T06:48:50;1.80;;;1.52;;
75446;SDS011;64024;55.820;37.574;2023-03-01T06:51:15;2.13;;;1.42;;
75446;SDS011;64024;55.820;37.574;2023-03-01T06:53:41;2.55;;;1.70;;
75446;SDS011;64024;55.820;37.574;2023-03-01T06:56:06;2.05;;;1.30;;
75446;SDS011;64024;55.820;37.574;2023-03-01T06:58:32;2.25;;;1.50;;
75446;SDS011;64024;55.820;37.574;2023-03-01T07:00:57;1.80;;;1.13;;
75446;SDS011;64024;55.820;37.574;2023-03-01T07:03:23;1.75;;;1.05;;
75446;SDS011;64024;55.820;37.574;2023-03-01T07:05:49;1.75;;;1.00;;
75446;SDS011;64024;55.820;37.574;2023-03-01T07:08:17;1.67;;;1.20;;
75446;SDS011;64024;55.820;37.574;2023-03-01T07:10:43;2.00;;;1.20;;
75446;SDS011;64024;55.820;37.574;2023-03-01T07:13:09;1.88;;;1.13;;
75446;SDS011;64024;55.820;37.574;2023-03-01T07:15:35;1.38;;;0.95;;
75446;SDS011;64024;55.820;37.574;2023-03-01T07:18:00;1.42;;;0.80;;
75446;SDS011;64024;55.820;37.574;2023-03-01T07:20:26;1.80;;;1.30;;
75446;SDS011;64024;55.820;37.574;2023-03-01T07:22:52;1.50;;;1.17;;
75446;SDS011;64024;55.820;37.574;2023-03-01T07:25:18;1.52;;;0.90;;
75446;SDS011;64024;55.820;37.574;2023-03-01T07:27:44;1.67;;;1.00;;
75446;SDS011;64024;55.820;37.574;2023-03-01T07:30:14;1.67;;;0.88;;
75446;SDS011;64024;55.820;37.574;2023-03-01T07:32:40;0.77;;;0.50;;
75446;SDS011;64024;55.820;37.574;2023-03-01T07:35:05;2.78;;;0.85;;
75446;SDS011;64024;55.820;37.574;2023-03-01T07:37:31;1.95;;;0.80;;
75446;SDS011;64024;55.820;37.574;2023-03-01T07:39:57;1.42;;;0.75;;
75446;SDS011;64024;55.820;37.574;2023-03-01T07:42:22;1.65;;;0.65;;
75446;SDS011;64024;55.820;37.574;2023-03-01T07:44:48;1.30;;;0.60;;
75446;SDS011;64024;55.820;37.574;2023-03-01T07:47:13;1.45;;;0.60;;
75446;SDS011;64024;55.820;37.574;2023-03-01T07:49:39;1.52;;;0.55;;
75446;SDS011;64024;55.820;37.574;2023-03-01T07:52:05;1.20;;;0.65;;
75446;SDS011;64024;55.820;37.574;2023-03-01T07:54:30;2.17;;;0.80;;
75446;SDS011;64024;55.820;37.574;2023-03-01T07:56:56;1.50;;;0.80;;
75446;SDS011;64024;55.820;37.574;2023-03-01T07:59:22;0.65;;;0.32;;
75446;SDS011;64024;55.820;37.574;2023-03-01T08:01:53;1.23;;;0.73;;
75446;SDS011;64024;55.820;37.574;2023-03-01T08:04:20;2.10;;;0.95;;
75446;SDS011;64024;55.820;37.574;2023-03-01T08:06:45;1.65;;;0.52;;
75446;SDS011;64024;55.820;37.574;2023-03-01T08:09:11;0.93;;;0.47;;
75446;SDS011;64024;55.820;37.574;2023-03-01T08:11:36;1.90;;;0.88;;
75446;SDS011;64024;55.820;37.574;2023-03-01T08:14:02;1.73;;;0.93;;
75446;SDS011;64024;55.820;37.574;2023-03-01T08:16:28;1.65;;;0.90;;
75446;SDS011;64024;55.820;37.574;2023-03-01T08:18:54;1.80;;;0.90;;
75446;SDS011;64024;55.820;37.574;2023-03-01T08:21:21;1.55;;;0.60;;
75446;SDS011;64024;55.820;37.574;2023-03-01T08:23:47;2.72;;;0.80;;
75446;SDS011;64024;55.820;37.574;2023-03-01T08:26:16;1.55;;;0.60;;
75446;SDS011;64024;55.820;37.574;2023-03-01T08:28:45;2.63;;;0.77;;
75446;SDS011;64024;55.820;37.574;2023-03-01T08:33:52;1.05;;;0.60;;
75446;SDS011;64024;55.820;37.574;2023-03-01T08:36:24;1.27;;;0.50;;
75446;SDS011;64024;55.820;37.574;2023-03-01T08:38:53;2.10;;;0.70;;
75446;SDS011;64024;55.820;37.574;2023-03-01T08:41:19;1.63;;;0.70;;
75446;SDS011;64024;55.820;37.574;2023-03-01T08:43:45;1.20;;;0.65;;
75446;SDS011;64024;55.820;37.574;2023-03-01T08:46:11;1.00;;;0.50;;
75446;SDS011;64024;55.820;37.574;2023-03-01T08:48:37;2.03;;;0.63;;
75446;SDS011;64024;55.820;37.574;2023-03-01T08:51:07;2.10;;;1.15;;
75446;SDS011;64024;55.820;37.574;2023-03-01T08:53:37;1.48;;;0.98;;
75446;SDS011;64024;55.820;37.574;2023-03-01T08:56:03;0.65;;;0.47;;
75446;SDS011;64024;55.820;37.574;2023-03-01T08:58:29;1.17;;;0.60;;
75446;SDS011;64024;55.820;37.574;2023-03-01T09:00:55;1.30;;;0.80;;
75446;SDS011;64024;55.820;37.574;2023-03-01T09:03:24;0.88;;;0.43;;
75446;SDS011;64024;55.820;37.574;2023-03-01T09:05:50;1.38;;;0.30;;
75446;SDS011;64024;55.820;37.574;2023-03-01T09:08:17;1.27;;;0.60;;
75446;SDS011;64024;55.820;37.574;2023-03-01T09:10:43;2.22;;;1.08;;
75446;SDS011;64024;55.820;37.574;2023-03-01T09:13:09;2.13;;;1.60;;
75446;SDS011;64024;55.820;37.574;2023-03-01T09:15:36;2.95;;;2.28;;
75446;SDS011;64024;55.820;37.574;2023-03-01T09:18:02;3.03;;;1.88;;
75446;SDS011;64024;55.820;37.574;2023-03-01T09:20:28;2.58;;;2.33;;
75446;SDS011;64024;55.820;37.574;2023-03-01T09:22:53;3.40;;;2.50;;
75446;SDS011;64024;55.820;37.574;2023-03-01T09:25:19;4.47;;;2.70;;
75446;SDS011;64024;55.820;37.574;2023-03-01T09:27:44;3.13;;;2.10;;
75446;SDS011;64024;55.820;37.574;2023-03-01T09:30:10;2.72;;;1.95;;
75446;SDS011;64024;55.820;37.574;2023-03-01T09:32:36;2.95;;;1.73;;
75446;SDS011;64024;55.820;37.574;2023-03-01T09:35:01;4.03;;;2.22;;
75446;SDS011;64024;55.820;37.574;2023-03-01T09:37:34;2.33;;;1.88;;
75446;SDS011;64024;55.820;37.574;2023-03-01T09:40:00;2.88;;;2.35;;
75446;SDS011;64024;55.820;37.574;2023-03-01T09:42:28;3.15;;;1.73;;
75446;SDS011;64024;55.820;37.574;2023-03-01T09:47:30;5.00;;;2.42;;
75446;SDS011;64024;55.820;37.574;2023-03-01T09:50:02;4.05;;;2.40;;
75446;SDS011;64024;55.820;37.574;2023-03-01T09:54:55;3.15;;;1.83;;
75446;SDS011;64024;55.820;37.574;2023-03-01T10:03:08;2.38;;;1.92;;
75446;SDS011;64024;55.820;37.574;2023-03-01T10:08:40;2.70;;;2.10;;
75446;SDS011;64024;55.820;37.574;2023-03-01T10:11:21;2.63;;;1.50;;
75446;SDS011;64024;55.820;37.574;2023-03-01T10:14:22;3.15;;;2.42;;
75446;SDS011;64024;55.820;37.574;2023-03-01T10:20:14;2.08;;;1.60;;
75446;SDS011;64024;55.820;37.574;2023-03-01T10:22:42;2.03;;;1.48;;
75446;SDS011;64024;55.820;37.574;2023-03-01T10:25:13;2.38;;;1.75;;
75446;SDS011;64024;55.820;37.574;2023-03-01T10:30:22;3.00;;;1.52;;
75446;SDS011;64024;55.820;37.574;2023-03-01T10:32:59;2.40;;;1.42;;
75446;SDS011;64024;55.820;37.574;2023-03-01T10:35:27;2.97;;;1.40;;
75446;SDS011;64024;55.820;37.574;2023-03-01T10:38:12;2.33;;;1.52;;
75446;SDS011;64024;55.820;37.574;2023-03-01T10:40:56;2.13;;;1.67;;
75446;SDS011;64024;55.820;37.574;2023-03-01T10:43:22;3.03;;;1.90;;
75446;SDS011;64024;55.820;37.574;2023-03-01T10:45:50;3.42;;;2.10;;
75446;SDS011;64024;55.820;37.574;2023-03-01T10:48:21;2.85;;;1.75;;
75446;SDS011;64024;55.820;37.574;2023-03-01T10:53:24;2.17;;;1.77;;
75446;SDS011;64024;55.820;37.574;2023-03-01T10:56:03;2.58;;;1.70;;
75446;SDS011;64024;55.820;37.574;2023-03-01T10:58:31;2.65;;;1.73;;
75446;SDS011;64024;55.820;37.574;2023-03-01T11:01:05;2.60;;;1.60;;
75446;SDS011;64024;55.820;37.574;2023-03-01T11:03:37;2.15;;;1.55;;
75446;SDS011;64024;55.820;37.574;2023-03-01T11:06:05;2.53;;;1.60;;
75446;SDS011;64024;55.820;37.574;2023-03-01T11:08:41;4.20;;;2.17;;
75446;SDS011;64024;55.820;37.574;2023-03-01T11:13:37;2.42;;;1.65;;
75446;SDS011;64024;55.820;37.574;2023-03-01T11:16:14;3.10;;;1.77;;
75446;SDS011;64024;55.820;37.574;2023-03-01T11:18:40;2.47;;;1.75;;
75446;SDS011;64024;55.820;37.574;2023-03-01T11:21:05;2.58;;;1.90;;
75446;SDS011;64024;55.820;37.574;2023-03-01T11:23:33;2.95;;;1.60;;
75446;SDS011;64024;55.820;37.574;2023-03-01T11:26:04;1.80;;;1.27;;
75446;SDS011;64024;55.820;37.574;2023-03-01T11:28:34;4.38;;;2.08;;
75446;SDS011;64024;55.820;37.574;2023-03-01T11:33:43;1.75;;;1.38;;
75446;SDS011;64024;55.820;37.574;2023-03-01T11:36:19;3.45;;;1.75;;
75446;SDS011;64024;55.820;37.574;2023-03-01T11:39:17;2.53;;;1.90;;
75446;SDS011;64024;55.820;37.574;2023-03-01T11:42:00;2.85;;;1.63;;
75446;SDS011;64024;55.820;37.574;2023-03-01T11:44:32;4.75;;;2.45;;
75446;SDS011;64024;55.820;37.574;2023-03-01T11:47:12;10.55;;;2.80;;
75446;SDS011;64024;55.820;37.574;2023-03-01T11:50:01;11.00;;;3.63;;
75446;SDS011;64024;55.820;37.574;2023-03-01T11:57:38;16.05;;;4.05;;
75446;SDS011;64024;55.820;37.574;2023-03-01T12:03:08;13.60;;;4.10;;
75446;SDS011;64024;55.820;37.574;2023-03-01T12:11:38;5.72;;;2.97;;
75446;SDS011;64024;55.820;37.574;2023-03-01T12:16:49;6.75;;;2.65;;
75446;SDS011;64024;55.820;37.574;2023-03-01T12:30:34;3.15;;;1.63;;
75446;SDS011;64024;55.820;37.574;2023-03-01T12:36:10;5.45;;;2.38;;
75446;SDS011;64024;55.820;37.574;2023-03-01T12:39:03;4.55;;;2.13;;
75446;SDS011;64024;55.820;37.574;2023-03-01T12:44:47;6.25;;;2.50;;
75446;SDS011;64024;55.820;37.574;2023-03-01T12:50:11;3.65;;;2.40;;
75446;SDS011;64024;55.820;37.574;2023-03-01T12:52:44;6.00;;;2.22;;
75446;SDS011;64024;55.820;37.574;2023-03-01T12:55:34;3.83;;;2.05;;
75446;SDS011;64024;55.820;37.574;2023-03-01T13:04:01;5.85;;;1.88;;
75446;SDS011;64024;55.820;37.574;2023-03-01T13:17:54;2.58;;;1.80;;
75446;SDS011;64024;55.820;37.574;2023-03-01T13:20:32;2.78;;;1.33;;
75446;SDS011;64024;55.820;37.574;2023-03-01T13:23:40;3.08;;;1.70;;
75446;SDS011;64024;55.820;37.574;2023-03-01T13:33:46;2.88;;;1.63;;
75446;SDS011;64024;55.820;37.574;2023-03-01T13:39:02;3.25;;;1.75;;
75446;SDS011;64024;55.820;37.574;2023-03-01T13:46:49;3.40;;;2.15;;
75446;SDS011;64024;55.820;37.574;2023-03-01T13:49:18;3.10;;;1.85;;
75446;SDS011;64024;55.820;37.574;2023-03-01T13:51:47;2.95;;;1.50;;
75446;SDS011;64024;55.820;37.574;2023-03-01T13:54:14;3.90;;;1.70;;
75446;SDS011;64024;55.820;37.574;2023-03-01T13:56:41;3.72;;;1.73;;
75446;SDS011;64024;55.820;37.574;2023-03-01T13:59:16;2.60;;;1.70;;
75446;SDS011;64024;55.820;37.574;2023-03-01T14:01:43;2.13;;;1.50;;
75446;SDS011;64024;55.820;37.574;2023-03-01T14:04:23;3.40;;;1.70;;
75446;SDS011;64024;55.820;37.574;2023-03-01T14:09:51;2.55;;;1.55;;
75446;SDS011;64024;55.820;37.574;2023-03-01T14:12:25;3.38;;;2.15;;
75446;SDS011;64024;55.820;37.574;2023-03-01T14:15:15;2.97;;;1.50;;
75446;SDS011;64024;55.820;37.574;2023-03-01T14:20:44;2.38;;;2.08;;
75446;SDS011;64024;55.820;37.574;2023-03-01T14:23:20;1.92;;;1.33;;
75446;SDS011;64024;55.820;37.574;2023-03-01T14:25:48;2.90;;;1.85;;
75446;SDS011;64024;55.820;37.574;2023-03-01T14:30:56;2.92;;;1.80;;
75446;SDS011;64024;55.820;37.574;2023-03-01T14:36:02;1.95;;;1.70;;
75446;SDS011;64024;55.820;37.574;2023-03-01T14:38:30;2.80;;;1.65;;
75446;SDS011;64024;55.820;37.574;2023-03-01T14:41:05;2.67;;;2.03;;
75446;SDS011;64024;55.820;37.574;2023-03-01T14:43:41;2.47;;;1.50;;
75446;SDS011;64024;55.820;37.574;2023-03-01T14:49:10;2.78;;;2.05;;
75446;SDS011;64024;55.820;37.574;2023-03-01T14:51:51;3.05;;;2.13;;
75446;SDS011;64024;55.820;37.574;2023-03-01T14:54:20;2.38;;;1.80;;
75446;SDS011;64024;55.820;37.574;2023-03-01T14:56:46;2.88;;;1.95;;
75446;SDS011;64024;55.820;37.574;2023-03-01T14:59:12;3.17;;;2.10;;
75446;SDS011;64024;55.820;37.574;2023-03-01T15:01:39;3.47;;;2.30;;
75446;SDS011;64024;55.820;37.574;2023-03-01T15:04:06;3.20;;;1.85;;
75446;SDS011;64024;55.820;37.574;2023-03-01T15:06:37;2.40;;;2.00;;
75446;SDS011;64024;55.820;37.574;2023-03-01T15:09:03;3.00;;;2.08;;
75446;SDS011;64024;55.820;37.574;2023-03-01T15:11:30;2.60;;;1.83;;
75446;SDS011;64024;55.820;37.574;2023-03-01T15:13:57;2.72;;;1.98;;
75446;SDS011;64024;55.820;37.574;2023-03-01T15:16:33;2.53;;;2.03;;
75446;SDS011;64024;55.820;37.574;2023-03-01T15:19:04;2.80;;;2.22;;
75446;SDS011;64024;55.820;37.574;2023-03-01T15:21:33;2.70;;;1.88;;
75446;SDS011;64024;55.820;37.574;2023-03-01T15:24:08;2.47;;;1.98;;
75446;SDS011;64024;55.820;37.574;2023-03-01T15:26:50;4.05;;;2.20;;
75446;SDS011;64024;55.820;37.574;2023-03-01T15:29:23;2.85;;;2.08;;
75446;SDS011;64024;55.820;37.574;2023-03-01T15:31:56;1.95;;;1.63;;
75446;SDS011;64024;55.820;37.574;2023-03-01T15:34:25;2.97;;;2.00;;
75446;SDS011;64024;55.820;37.574;2023-03-01T15:37:03;2.55;;;2.00;;
75446;SDS011;64024;55.820;37.574;2023-03-01T15:39:38;2.30;;;1.80;;
75446;SDS011;64024;55.820;37.574;2023-03-01T15:44:38;2.90;;;1.90;;
75446;SDS011;64024;55.820;37.574;2023-03-01T15:49:53;3.00;;;2.15;;
75446;SDS011;64024;55.820;37.574;2023-03-01T15:52:24;2.38;;;1.80;;
75446;SDS011;64024;55.820;37.574;2023-03-01T15:54:56;3.60;;;2.22;;
75446;SDS011;64024;55.820;37.574;2023-03-01T15:57:26;2.13;;;1.80;;
75446;SDS011;64024;55.820;37.574;2023-03-01T15:59:52;2.50;;;1.90;;
75446;SDS011;64024;55.820;37.574;2023-03-01T16:02:17;2.78;;;1.95;;
75446;SDS011;64024;55.820;37.574;2023-03-01T16:04:46;1.92;;;1.50;;
75446;SDS011;64024;55.820;37.574;2023-03-01T16:07:14;2.40;;;1.77;;
75446;SDS011;64024;55.820;37.574;2023-03-01T16:09:40;3.20;;;1.80;;
75446;SDS011;64024;55.820;37.574;2023-03-01T16:12:08;2.47;;;2.10;;
75446;SDS011;64024;55.820;37.574;2023-03-01T16:14:39;3.30;;;2.15;;
75446;SDS011;64024;55.820;37.574;2023-03-01T16:17:04;2.95;;;2.70;;
75446;SDS011;64024;55.820;37.574;2023-03-01T16:19:30;2.90;;;2.30;;
75446;SDS011;64024;55.820;37.574;2023-03-01T16:21:56;2.97;;;2.08;;
75446;SDS011;64024;55.820;37.574;2023-03-01T16:24:21;3.97;;;3.42;;
75446;SDS011;64024;55.820;37.574;2023-03-01T16:26:47;2.53;;;2.10;;
75446;SDS011;64024;55.820;37.574;2023-03-01T16:29:12;2.75;;;2.28;;
75446;SDS011;64024;55.820;37.574;2023-03-01T16:31:38;2.65;;;2.10;;
75446;SDS011;64024;55.820;37.574;2023-03-01T16:34:03;3.55;;;2.65;;
75446;SDS011;64024;55.820;37.574;2023-03-01T16:36:29;2.67;;;1.60;;
75446;SDS011;64024;55.820;37.574;2023-03-01T16:38:55;6.75;;;3.63;;
75446;SDS011;64024;55.820;37.574;2023-03-01T16:41:23;2.83;;;1.98;;
75446;SDS011;64024;55.820;37.574;2023-03-01T16:43:49;2.53;;;1.73;;
75446;SDS011;64024;55.820;37.574;2023-03-01T16:46:26;4.28;;;1.75;;
75446;SDS011;64024;55.820;37.574;2023-03-01T16:48:53;2.10;;;1.48;;
75446;SDS011;64024;55.820;37.574;2023-03-01T16:51:19;3.97;;;2.00;;
75446;SDS011;64024;55.820;37.574;2023-03-01T16:53:45;2.55;;;1.48;;
75446;SDS011;64024;55.820;37.574;2023-03-01T16:56:12;1.90;;;1.52;;
75446;SDS011;64024;55.820;37.574;2023-03-01T16:58:38;1.70;;;1.45;;
75446;SDS011;64024;55.820;37.574;2023-03-01T17:01:06;2.58;;;1.70;;
75446;SDS011;64024;55.820;37.574;2023-03-01T17:03:31;2.38;;;1.38;;
75446;SDS011;64024;55.820;37.574;2023-03-01T17:06:00;1.83;;;1.48;;